Willow City, North Dakota
Current Conditions -  °F | °C
As of 11:55 PM on Thursday 30 Oct 2014 (Local Time) from KRUG Reporting Station
Clear Clear  
Wind Chill:   Ceiling: Unl
Heat Index: 19°   Visibility: 10mi
Dew Point: 16°   Wind: 9mph
Humidity: 86%   Direction: 100°E
Pressure: 30.58"   Gusts: NA
Location:  48.6°N, 100.29°W
Report Text: KRUG 310455Z AUTO 10008KT 10SM CLR M07/M09 A3058 RMK AO2
Loading
Personal Weather Stations






























Interactive Weather Map
Tropical Storm Tracking
New forecast layout! Learn more

10-Day Weather Forecast

Advertisements
Track Severe Weather on mobile